AirNav   Everest Fuels
 
 367 users online  

06FL Morton Plant Hospital Heliport
Clearwater, Florida, USA

GOING TO CLEARWATER?


FAA INFORMATION EFFECTIVE 21 MAY 2020

Location

FAA Identifier: 06FL
Lat/Long: 27-57-12.7600N 082-48-22.4800W
27-57.212667N 082-48.374667W
27.9535444,-82.8062444
(estimated)
Elevation: 3 ft. / 1 m (estimated)
Variation: 02W (1985)
From city: 1 mile SSW of CLEARWATER, FL
Time zone: UTC -4 (UTC -5 during Standard Time)
Zip code: 33756

Heliport Operations

Heliport use: Private use, MEDICAL.
Activation date: 08/1980
Control tower: no
ARTCC: MIAMI CENTER
FSS: SAINT PETERSBURG FLIGHT SERVICE STATION
Attendance: UNATNDD
Wind indicator: no
Segmented circle: no

Heliport Communications

WX AWOS-3P at CLW (2.9 nm NE): 119.225 (727-449-2184)
WX ASOS at PIE (7 nm SE): PHONE 727-531-3456
WX ASOS at TPA (15 nm E): PHONE 813-873-7228
WX ASOS at SPG (15 nm SE): 118.875 (727-821-4334)
WX AWOS-3 at TPF (19 nm E): 118.925 (813-251-6824)

Nearby radio navigation aids

VOR radial/distance  VOR name  Freq  Var
PIEr298/7.0ST PETERSBURG VORTAC116.4005W
SRQr344/35.2SARASOTA VOR/DME117.0005W

 
NDB name  Hdg/Dist  Freq  Var  ID
CAPOK250/6.036005WPI .--. ..

Heliport Services

Runway Information

Helipad H1

Dimensions: 200 x 100 ft. / 61 x 30 m
Surface: turf
Latitude: 27-57.212667N
Longitude: 082-48.374667W
Elevation: 3.0 ft.
Traffic pattern: leftleft

Heliport Ownership and Management from official FAA records

Ownership: Privately-owned
Owner: MORTON F PLANT HOS ASSOC. INC
2985 DREW STREET
CLEARWATER, FL 33759
Phone 727-519-1787
Manager: DIANE HEIN
303 PINELLAS ST, SUITE 310
CLEARWATER, FL 33756
Phone (727) 462-7152

Additional Remarks

FOR CD CTC TAMPA APCH AT 813-878-2528.

Instrument Procedures

There are no published instrument procedures at 06FL.

Some nearby airports with instrument procedures:

KCLW - Clearwater Air Park (3 nm NE)
KPIE - St Pete-Clearwater International Airport (7 nm SE)
KTPA - Tampa International Airport (15 nm E)
KSPG - Albert Whitted Airport (15 nm SE)
KMCF - MacDill Air Force Base (16 nm E)
KTPF - Peter O Knight Airport (19 nm E)
 
Loc | Ops | Rwys | IFR | FBO | Links
Com | Nav | Svcs | Stats | Notes


 
Area around 06FL (Morton Plant Hospital Heliport)
 
Road maps at: MapQuest Bing Google
 
Aerial photo
No photo
 
Sectional chart

 
Airport distance calculator
Flying to Morton Plant Hospital Heliport? Find the distance to fly.

From to 06FL

Sunrise and sunset
Times for 06-Jun-2020
 Local
(UTC-4)
 Zulu
(UTC)
Morning civil twilight06:0910:09
Sunrise06:3510:35
Sunset20:2500:25
Evening civil twilight20:5100:51

Current date and time
Zulu (UTC)  06-Jun-2020 07:16:09
Local (UTC-4)  06-Jun-2020 03:16:09
 
METAR
KCLW 
3nm NE 
060655Z AUTO 12008G14KT 10SM DZ SCT050 SCT060 BKN110 23/22 A2999 RMK AO2
KPIE 
7nm E 
060553Z AUTO 11006KT 10SM FEW090 24/22 A2999 RMK AO2 SLP156 60002 T02440222 10256 20244 58007
KTPA 
14nm E 
060653Z 12006KT 9SM -RA FEW085 OVC140 24/21 A3000 RMK AO2 RAB31 SLP159 P0001 T02390206
KSPG 
14nm SE 
060653Z AUTO 12015KT 3SM +RA BR BKN042 OVC065 24/24 A2999 RMK AO2 SLP154 P0009 T02440239 $
KMCF 
17nm E 
060656Z AUTO 14005KT 10SM +RA BKN048 BKN060 23/22 A3000 RMK AO2 DZB08E10RAB10 SLP162 P0005 T02330215 FZRANO $
KTPF 
19nm E 
060655Z AUTO 14007KT 10SM -RA SCT075 BKN085 OVC110 A3001 RMK AO2
TAF
KPIE 
7nm E 
060535Z 0606/0706 10008KT P6SM VCSH OVC120 FM061100 12009KT P6SM VCSH SCT020 BKN050 TEMPO 0612/0615 4SM SHRA BKN020 FM061900 14014G22KT P6SM VCTS SCT035CB OVC100 FM070100 13015G24KT P6SM VCSH SCT010 OVC020
KTPA 
14nm E 
060535Z 0606/0712 10007KT P6SM VCSH OVC120 FM061100 13007KT P6SM VCSH SCT020 BKN050 TEMPO 0612/0615 4SM SHRA BKN020 FM061900 12009G18KT P6SM VCTS SCT035CB OVC100 FM070100 13012G20KT P6SM VCSH SCT010 OVC020
KMCF 
17nm E 
052100Z 0521/0703 10012KT 9000 -SHRA SCT020 510033 QNH2993INS TEMPO 0521/0523 10015KT 8000 VCTS SCT020CB BECMG 0602/0603 10012KT 9999 NSW SCT030 QNH2992INS BECMG 0614/0615 10018KT 8000 -RA BKN018 510043 QNH2990INS BECMG 0620/0621 12020KT 9000 -SHRA FEW017 510022 QNH2983INS TX26/0618Z TN23/0611Z LAST TAF NO AMDS UNTIL 06/1330Z
NOTAMs
Click for the latest NOTAMs
NOTAMs are issued by the DoD/FAA and will open in a separate window not controlled by AirNav.

 

 
 

Would you like to see your business listed on this page?

 If your business provides an interesting product or service to pilots, flight crews, aircraft, or users of the Morton Plant Hospital Heliport, you should consider listing it here.  To start the listing process, click on the button below
 
Add a business
 

Other Pages about Morton Plant Hospital Heliport

Update a link
 
Copyright © AirNav, LLC. All rights reserved. Privacy Policy  Contact